Weather at Fort St John Airport

Public forecast

Using degrees Celsius for public forecast. Weather courtesy of forecast.io.

Current aviation weather report (METAR) for Fort St John Airport

Retrieved 2020/12/04 23:00 UTC (25 minutes ago):

CYXJ 042300Z 23013G19KT 60SM FEW160 BKN200 07/M02 A3003 RMK AC1CI6 SLP196

Aviation forecast (TAF) for Fort St John Airport

Retrieved 2020/12/04 19:42 UTC (4 hours ago):

TAF CYXJ 041838Z 0419/0507 23010G20KT P6SM FEW150 BKN220 RMK NXT FCST BY 050100Z